sensor_id;sensor_type;location;lat;lon;timestamp;P1;durP1;ratioP1;P2;durP2;ratioP2
71696;SDS011;59528;59.082;37.926;2023-02-03T00:01:45;9.83;;;8.90;;
71696;SDS011;59528;59.082;37.926;2023-02-03T00:04:11;9.63;;;8.73;;
71696;SDS011;59528;59.082;37.926;2023-02-03T00:06:37;9.27;;;8.37;;
71696;SDS011;59528;59.082;37.926;2023-02-03T00:09:03;9.30;;;8.30;;
71696;SDS011;59528;59.082;37.926;2023-02-03T00:11:29;9.33;;;8.33;;
71696;SDS011;59528;59.082;37.926;2023-02-03T00:13:56;9.17;;;8.30;;
71696;SDS011;59528;59.082;37.926;2023-02-03T00:16:21;9.43;;;8.50;;
71696;SDS011;59528;59.082;37.926;2023-02-03T00:18:47;9.67;;;8.77;;
71696;SDS011;59528;59.082;37.926;2023-02-03T00:21:12;9.73;;;8.73;;
71696;SDS011;59528;59.082;37.926;2023-02-03T00:23:41;9.73;;;8.83;;
71696;SDS011;59528;59.082;37.926;2023-02-03T00:26:07;10.03;;;9.03;;
71696;SDS011;59528;59.082;37.926;2023-02-03T00:28:33;9.50;;;8.50;;
71696;SDS011;59528;59.082;37.926;2023-02-03T00:31:00;9.80;;;8.80;;
71696;SDS011;59528;59.082;37.926;2023-02-03T00:33:25;9.47;;;8.57;;
71696;SDS011;59528;59.082;37.926;2023-02-03T00:35:51;10.30;;;9.00;;
71696;SDS011;59528;59.082;37.926;2023-02-03T00:38:16;9.73;;;8.73;;
71696;SDS011;59528;59.082;37.926;2023-02-03T00:40:42;10.10;;;9.10;;
71696;SDS011;59528;59.082;37.926;2023-02-03T00:43:07;9.40;;;8.50;;
71696;SDS011;59528;59.082;37.926;2023-02-03T00:45:33;9.87;;;8.87;;
71696;SDS011;59528;59.082;37.926;2023-02-03T00:47:59;10.47;;;9.30;;
71696;SDS011;59528;59.082;37.926;2023-02-03T00:50:25;9.83;;;8.83;;
71696;SDS011;59528;59.082;37.926;2023-02-03T00:52:51;9.93;;;8.93;;
71696;SDS011;59528;59.082;37.926;2023-02-03T00:55:16;9.70;;;8.70;;
71696;SDS011;59528;59.082;37.926;2023-02-03T00:57:42;10.10;;;9.10;;
71696;SDS011;59528;59.082;37.926;2023-02-03T01:00:09;9.80;;;8.80;;
71696;SDS011;59528;59.082;37.926;2023-02-03T01:02:35;10.20;;;9.20;;
71696;SDS011;59528;59.082;37.926;2023-02-03T01:05:01;10.70;;;9.60;;
71696;SDS011;59528;59.082;37.926;2023-02-03T01:07:30;10.13;;;9.13;;
71696;SDS011;59528;59.082;37.926;2023-02-03T01:09:56;10.50;;;9.47;;
71696;SDS011;59528;59.082;37.926;2023-02-03T01:12:21;9.77;;;8.77;;
71696;SDS011;59528;59.082;37.926;2023-02-03T01:14:47;9.80;;;8.80;;
71696;SDS011;59528;59.082;37.926;2023-02-03T01:17:12;10.57;;;9.17;;
71696;SDS011;59528;59.082;37.926;2023-02-03T01:19:38;10.53;;;9.43;;
71696;SDS011;59528;59.082;37.926;2023-02-03T01:22:03;10.07;;;9.07;;
71696;SDS011;59528;59.082;37.926;2023-02-03T01:24:30;10.37;;;9.27;;
71696;SDS011;59528;59.082;37.926;2023-02-03T01:26:55;10.97;;;9.87;;
71696;SDS011;59528;59.082;37.926;2023-02-03T01:29:21;9.60;;;8.60;;
71696;SDS011;59528;59.082;37.926;2023-02-03T01:31:48;10.17;;;9.17;;
71696;SDS011;59528;59.082;37.926;2023-02-03T01:34:13;11.10;;;9.87;;
71696;SDS011;59528;59.082;37.926;2023-02-03T01:36:42;10.50;;;9.40;;
71696;SDS011;59528;59.082;37.926;2023-02-03T01:39:07;10.67;;;9.50;;
71696;SDS011;59528;59.082;37.926;2023-02-03T01:41:35;10.60;;;9.50;;
71696;SDS011;59528;59.082;37.926;2023-02-03T01:44:30;10.60;;;9.50;;
71696;SDS011;59528;59.082;37.926;2023-02-03T01:46:47;10.80;;;9.47;;
71696;SDS011;59528;59.082;37.926;2023-02-03T01:49:26;9.83;;;8.83;;
71696;SDS011;59528;59.082;37.926;2023-02-03T01:51:54;10.60;;;9.50;;
71696;SDS011;59528;59.082;37.926;2023-02-03T01:54:25;10.17;;;9.17;;
71696;SDS011;59528;59.082;37.926;2023-02-03T01:56:55;10.23;;;9.23;;
71696;SDS011;59528;59.082;37.926;2023-02-03T01:59:22;10.73;;;9.63;;
71696;SDS011;59528;59.082;37.926;2023-02-03T02:01:49;10.20;;;9.07;;
71696;SDS011;59528;59.082;37.926;2023-02-03T02:04:15;10.17;;;9.17;;
71696;SDS011;59528;59.082;37.926;2023-02-03T02:06:41;10.60;;;9.50;;
71696;SDS011;59528;59.082;37.926;2023-02-03T02:09:11;10.77;;;9.67;;
71696;SDS011;59528;59.082;37.926;2023-02-03T02:11:38;10.43;;;9.33;;
71696;SDS011;59528;59.082;37.926;2023-02-03T02:14:04;10.73;;;9.53;;
71696;SDS011;59528;59.082;37.926;2023-02-03T02:16:55;10.47;;;9.37;;
71696;SDS011;59528;59.082;37.926;2023-02-03T02:19:47;10.80;;;9.70;;
71696;SDS011;59528;59.082;37.926;2023-02-03T02:37:49;10.70;;;9.57;;
71696;SDS011;59528;59.082;37.926;2023-02-03T02:48:06;9.90;;;9.00;;
71696;SDS011;59528;59.082;37.926;2023-02-03T02:50:33;11.10;;;10.00;;
71696;SDS011;59528;59.082;37.926;2023-02-03T02:53:01;10.47;;;9.37;;
71696;SDS011;59528;59.082;37.926;2023-02-03T02:55:30;10.00;;;9.03;;
71696;SDS011;59528;59.082;37.926;2023-02-03T02:58:02;10.93;;;9.77;;
71696;SDS011;59528;59.082;37.926;2023-02-03T03:00:29;10.50;;;9.40;;
71696;SDS011;59528;59.082;37.926;2023-02-03T03:02:55;10.37;;;9.27;;
71696;SDS011;59528;59.082;37.926;2023-02-03T03:05:21;10.60;;;9.50;;
71696;SDS011;59528;59.082;37.926;2023-02-03T03:07:51;11.43;;;9.77;;
71696;SDS011;59528;59.082;37.926;2023-02-03T03:10:19;10.63;;;9.53;;
71696;SDS011;59528;59.082;37.926;2023-02-03T03:12:49;10.33;;;9.30;;
71696;SDS011;59528;59.082;37.926;2023-02-03T03:15:20;11.13;;;9.93;;
71696;SDS011;59528;59.082;37.926;2023-02-03T03:17:57;10.70;;;9.60;;
71696;SDS011;59528;59.082;37.926;2023-02-03T03:20:24;10.57;;;9.57;;
71696;SDS011;59528;59.082;37.926;2023-02-03T03:22:58;10.93;;;9.43;;
71696;SDS011;59528;59.082;37.926;2023-02-03T03:25:42;10.73;;;9.63;;
71696;SDS011;59528;59.082;37.926;2023-02-03T03:28:12;10.47;;;9.47;;
71696;SDS011;59528;59.082;37.926;2023-02-03T03:30:40;10.33;;;9.27;;
71696;SDS011;59528;59.082;37.926;2023-02-03T03:33:06;10.17;;;9.10;;
71696;SDS011;59528;59.082;37.926;2023-02-03T03:35:40;10.67;;;9.57;;
71696;SDS011;59528;59.082;37.926;2023-02-03T03:38:43;11.50;;;10.30;;
71696;SDS011;59528;59.082;37.926;2023-02-03T03:41:04;10.93;;;9.83;;
71696;SDS011;59528;59.082;37.926;2023-02-03T03:43:33;10.47;;;9.47;;
71696;SDS011;59528;59.082;37.926;2023-02-03T03:46:02;10.60;;;9.60;;
71696;SDS011;59528;59.082;37.926;2023-02-03T03:48:30;12.20;;;10.90;;
71696;SDS011;59528;59.082;37.926;2023-02-03T03:51:01;12.50;;;11.00;;
71696;SDS011;59528;59.082;37.926;2023-02-03T03:53:27;13.37;;;10.83;;
71696;SDS011;59528;59.082;37.926;2023-02-03T03:55:55;12.67;;;11.30;;
71696;SDS011;59528;59.082;37.926;2023-02-03T03:58:24;11.77;;;10.50;;
71696;SDS011;59528;59.082;37.926;2023-02-03T04:00:51;11.53;;;10.30;;
71696;SDS011;59528;59.082;37.926;2023-02-03T04:03:21;11.43;;;10.23;;
71696;SDS011;59528;59.082;37.926;2023-02-03T04:05:47;11.60;;;10.40;;
71696;SDS011;59528;59.082;37.926;2023-02-03T04:08:13;10.93;;;9.83;;
71696;SDS011;59528;59.082;37.926;2023-02-03T04:10:40;11.50;;;10.40;;
71696;SDS011;59528;59.082;37.926;2023-02-03T04:13:07;11.37;;;9.87;;
71696;SDS011;59528;59.082;37.926;2023-02-03T04:15:33;11.20;;;9.90;;
71696;SDS011;59528;59.082;37.926;2023-02-03T04:17:59;10.93;;;9.80;;
71696;SDS011;59528;59.082;37.926;2023-02-03T04:20:26;10.20;;;9.20;;
71696;SDS011;59528;59.082;37.926;2023-02-03T04:22:52;10.33;;;9.33;;
71696;SDS011;59528;59.082;37.926;2023-02-03T04:25:17;9.67;;;8.70;;
71696;SDS011;59528;59.082;37.926;2023-02-03T04:27:44;10.73;;;8.63;;
71696;SDS011;59528;59.082;37.926;2023-02-03T04:30:10;9.70;;;8.80;;
71696;SDS011;59528;59.082;37.926;2023-02-03T04:32:36;11.13;;;9.10;;
71696;SDS011;59528;59.082;37.926;2023-02-03T04:35:02;11.77;;;9.50;;
71696;SDS011;59528;59.082;37.926;2023-02-03T04:37:28;13.63;;;9.40;;
71696;SDS011;59528;59.082;37.926;2023-02-03T04:39:54;14.77;;;9.33;;
71696;SDS011;59528;59.082;37.926;2023-02-03T04:42:22;14.70;;;9.20;;
71696;SDS011;59528;59.082;37.926;2023-02-03T04:44:49;16.30;;;9.50;;
71696;SDS011;59528;59.082;37.926;2023-02-03T04:47:15;11.73;;;8.73;;
71696;SDS011;59528;59.082;37.926;2023-02-03T04:49:43;13.50;;;9.57;;
71696;SDS011;59528;59.082;37.926;2023-02-03T04:52:08;11.67;;;8.40;;
71696;SDS011;59528;59.082;37.926;2023-02-03T04:54:34;10.00;;;8.80;;
71696;SDS011;59528;59.082;37.926;2023-02-03T04:57:00;12.30;;;8.90;;
71696;SDS011;59528;59.082;37.926;2023-02-03T04:59:25;11.40;;;9.10;;
71696;SDS011;59528;59.082;37.926;2023-02-03T05:01:51;9.70;;;8.70;;
71696;SDS011;59528;59.082;37.926;2023-02-03T05:04:16;13.13;;;8.93;;
71696;SDS011;59528;59.082;37.926;2023-02-03T05:06:42;13.53;;;9.07;;
71696;SDS011;59528;59.082;37.926;2023-02-03T05:09:08;10.37;;;8.80;;
71696;SDS011;59528;59.082;37.926;2023-02-03T05:11:33;9.70;;;8.10;;
71696;SDS011;59528;59.082;37.926;2023-02-03T05:13:59;9.07;;;8.13;;
71696;SDS011;59528;59.082;37.926;2023-02-03T05:16:24;10.33;;;8.10;;
71696;SDS011;59528;59.082;37.926;2023-02-03T05:18:51;9.53;;;8.43;;
71696;SDS011;59528;59.082;37.926;2023-02-03T05:21:17;11.70;;;8.80;;
71696;SDS011;59528;59.082;37.926;2023-02-03T05:23:42;12.53;;;8.10;;
71696;SDS011;59528;59.082;37.926;2023-02-03T05:26:08;9.77;;;8.77;;
71696;SDS011;59528;59.082;37.926;2023-02-03T05:28:37;13.03;;;8.57;;
71696;SDS011;59528;59.082;37.926;2023-02-03T05:31:02;10.93;;;8.43;;
71696;SDS011;59528;59.082;37.926;2023-02-03T05:33:28;10.37;;;8.50;;
71696;SDS011;59528;59.082;37.926;2023-02-03T05:35:57;11.87;;;8.43;;
71696;SDS011;59528;59.082;37.926;2023-02-03T05:38:23;10.83;;;8.50;;
71696;SDS011;59528;59.082;37.926;2023-02-03T05:40:49;10.10;;;8.40;;
71696;SDS011;59528;59.082;37.926;2023-02-03T05:43:34;12.57;;;8.87;;
71696;SDS011;59528;59.082;37.926;2023-02-03T05:46:00;11.17;;;8.57;;
71696;SDS011;59528;59.082;37.926;2023-02-03T05:48:26;9.63;;;8.63;;
71696;SDS011;59528;59.082;37.926;2023-02-03T05:50:53;10.60;;;8.60;;
71696;SDS011;59528;59.082;37.926;2023-02-03T05:53:18;9.47;;;8.57;;
71696;SDS011;59528;59.082;37.926;2023-02-03T05:55:44;10.20;;;8.20;;
71696;SDS011;59528;59.082;37.926;2023-02-03T05:58:09;10.37;;;8.77;;
71696;SDS011;59528;59.082;37.926;2023-02-03T06:00:35;10.07;;;8.13;;
71696;SDS011;59528;59.082;37.926;2023-02-03T06:03:01;11.87;;;9.03;;
71696;SDS011;59528;59.082;37.926;2023-02-03T06:05:28;10.03;;;8.90;;
71696;SDS011;59528;59.082;37.926;2023-02-03T06:07:54;9.93;;;8.67;;
71696;SDS011;59528;59.082;37.926;2023-02-03T06:10:20;9.10;;;8.07;;
71696;SDS011;59528;59.082;37.926;2023-02-03T06:12:46;9.83;;;8.77;;
71696;SDS011;59528;59.082;37.926;2023-02-03T06:15:12;10.57;;;8.80;;
71696;SDS011;59528;59.082;37.926;2023-02-03T06:17:38;9.43;;;8.37;;
71696;SDS011;59528;59.082;37.926;2023-02-03T06:20:07;9.50;;;8.50;;
71696;SDS011;59528;59.082;37.926;2023-02-03T06:22:33;10.00;;;9.00;;
71696;SDS011;59528;59.082;37.926;2023-02-03T06:25:00;10.00;;;8.90;;
71696;SDS011;59528;59.082;37.926;2023-02-03T06:27:26;10.30;;;9.20;;
71696;SDS011;59528;59.082;37.926;2023-02-03T06:29:51;9.97;;;8.80;;
71696;SDS011;59528;59.082;37.926;2023-02-03T06:32:19;10.10;;;8.63;;
71696;SDS011;59528;59.082;37.926;2023-02-03T06:34:45;9.53;;;8.53;;
71696;SDS011;59528;59.082;37.926;2023-02-03T06:37:10;10.90;;;9.43;;
71696;SDS011;59528;59.082;37.926;2023-02-03T06:39:36;11.00;;;8.77;;
71696;SDS011;59528;59.082;37.926;2023-02-03T06:42:02;9.37;;;8.47;;
71696;SDS011;59528;59.082;37.926;2023-02-03T06:44:27;9.90;;;8.73;;
71696;SDS011;59528;59.082;37.926;2023-02-03T06:46:53;10.20;;;8.70;;
71696;SDS011;59528;59.082;37.926;2023-02-03T06:49:20;10.20;;;9.10;;
71696;SDS011;59528;59.082;37.926;2023-02-03T06:51:46;11.10;;;9.53;;
71696;SDS011;59528;59.082;37.926;2023-02-03T06:54:12;9.83;;;8.80;;
71696;SDS011;59528;59.082;37.926;2023-02-03T06:56:38;10.03;;;9.00;;
71696;SDS011;59528;59.082;37.926;2023-02-03T06:59:04;10.23;;;9.10;;
71696;SDS011;59528;59.082;37.926;2023-02-03T07:01:32;10.33;;;9.27;;
71696;SDS011;59528;59.082;37.926;2023-02-03T07:03:58;10.30;;;9.13;;
71696;SDS011;59528;59.082;37.926;2023-02-03T07:06:24;10.87;;;9.77;;
71696;SDS011;59528;59.082;37.926;2023-02-03T07:09:03;10.77;;;9.17;;
71696;SDS011;59528;59.082;37.926;2023-02-03T07:11:29;10.13;;;9.03;;
71696;SDS011;59528;59.082;37.926;2023-02-03T07:13:55;10.20;;;9.00;;
71696;SDS011;59528;59.082;37.926;2023-02-03T07:16:22;9.97;;;8.97;;
71696;SDS011;59528;59.082;37.926;2023-02-03T07:18:47;11.13;;;10.03;;
71696;SDS011;59528;59.082;37.926;2023-02-03T07:21:13;10.20;;;9.20;;
71696;SDS011;59528;59.082;37.926;2023-02-03T07:23:41;11.43;;;9.17;;
71696;SDS011;59528;59.082;37.926;2023-02-03T07:26:09;10.57;;;9.47;;
71696;SDS011;59528;59.082;37.926;2023-02-03T07:28:35;9.87;;;8.87;;
71696;SDS011;59528;59.082;37.926;2023-02-03T07:31:01;10.87;;;8.80;;
71696;SDS011;59528;59.082;37.926;2023-02-03T07:33:29;10.07;;;9.03;;
71696;SDS011;59528;59.082;37.926;2023-02-03T07:35:55;9.17;;;8.27;;
71696;SDS011;59528;59.082;37.926;2023-02-03T07:38:21;10.40;;;9.33;;
71696;SDS011;59528;59.082;37.926;2023-02-03T07:40:47;10.40;;;9.30;;
71696;SDS011;59528;59.082;37.926;2023-02-03T07:43:13;9.97;;;8.97;;
71696;SDS011;59528;59.082;37.926;2023-02-03T07:45:39;10.13;;;9.03;;
71696;SDS011;59528;59.082;37.926;2023-02-03T07:48:04;10.57;;;9.03;;
71696;SDS011;59528;59.082;37.926;2023-02-03T07:50:30;10.43;;;9.40;;
71696;SDS011;59528;59.082;37.926;2023-02-03T07:52:57;10.97;;;9.67;;
71696;SDS011;59528;59.082;37.926;2023-02-03T07:55:23;10.73;;;9.63;;
71696;SDS011;59528;59.082;37.926;2023-02-03T07:57:49;10.07;;;9.07;;
71696;SDS011;59528;59.082;37.926;2023-02-03T08:00:14;10.13;;;9.03;;
71696;SDS011;59528;59.082;37.926;2023-02-03T08:02:43;10.27;;;9.13;;
71696;SDS011;59528;59.082;37.926;2023-02-03T08:05:09;10.10;;;9.10;;
71696;SDS011;59528;59.082;37.926;2023-02-03T08:07:35;10.47;;;9.37;;
71696;SDS011;59528;59.082;37.926;2023-02-03T08:10:00;11.17;;;10.00;;
71696;SDS011;59528;59.082;37.926;2023-02-03T08:12:26;9.90;;;8.90;;
71696;SDS011;59528;59.082;37.926;2023-02-03T08:14:51;10.67;;;9.23;;
71696;SDS011;59528;59.082;37.926;2023-02-03T08:17:17;10.20;;;9.10;;
71696;SDS011;59528;59.082;37.926;2023-02-03T08:19:43;9.87;;;8.87;;
71696;SDS011;59528;59.082;37.926;2023-02-03T08:22:08;10.30;;;9.20;;
71696;SDS011;59528;59.082;37.926;2023-02-03T08:24:43;9.40;;;8.47;;
71696;SDS011;59528;59.082;37.926;2023-02-03T08:27:11;10.13;;;9.13;;
71696;SDS011;59528;59.082;37.926;2023-02-03T08:29:37;10.00;;;9.00;;
71696;SDS011;59528;59.082;37.926;2023-02-03T08:32:02;10.30;;;9.30;;
71696;SDS011;59528;59.082;37.926;2023-02-03T08:34:28;9.70;;;8.80;;
71696;SDS011;59528;59.082;37.926;2023-02-03T08:36:54;9.90;;;8.90;;
71696;SDS011;59528;59.082;37.926;2023-02-03T08:39:21;10.20;;;9.10;;
71696;SDS011;59528;59.082;37.926;2023-02-03T08:41:47;10.20;;;8.70;;
71696;SDS011;59528;59.082;37.926;2023-02-03T08:44:12;9.60;;;8.60;;
71696;SDS011;59528;59.082;37.926;2023-02-03T08:46:38;10.73;;;9.47;;
71696;SDS011;59528;59.082;37.926;2023-02-03T08:49:08;10.10;;;9.10;;
71696;SDS011;59528;59.082;37.926;2023-02-03T08:51:34;9.73;;;8.80;;
71696;SDS011;59528;59.082;37.926;2023-02-03T08:54:00;9.63;;;8.73;;
71696;SDS011;59528;59.082;37.926;2023-02-03T08:56:26;9.80;;;8.90;;
71696;SDS011;59528;59.082;37.926;2023-02-03T08:58:52;9.87;;;8.87;;
71696;SDS011;59528;59.082;37.926;2023-02-03T09:01:18;9.80;;;8.80;;
71696;SDS011;59528;59.082;37.926;2023-02-03T09:03:44;9.33;;;8.43;;
71696;SDS011;59528;59.082;37.926;2023-02-03T09:06:09;9.80;;;8.90;;
71696;SDS011;59528;59.082;37.926;2023-02-03T09:08:37;10.40;;;9.30;;
71696;SDS011;59528;59.082;37.926;2023-02-03T09:11:13;10.33;;;9.33;;
71696;SDS011;59528;59.082;37.926;2023-02-03T09:13:40;10.10;;;8.93;;
71696;SDS011;59528;59.082;37.926;2023-02-03T09:16:13;9.77;;;8.73;;
71696;SDS011;59528;59.082;37.926;2023-02-03T09:18:41;11.00;;;9.73;;
71696;SDS011;59528;59.082;37.926;2023-02-03T09:21:07;10.00;;;8.90;;
71696;SDS011;59528;59.082;37.926;2023-02-03T09:23:35;10.77;;;9.67;;
71696;SDS011;59528;59.082;37.926;2023-02-03T09:26:10;10.17;;;9.17;;
71696;SDS011;59528;59.082;37.926;2023-02-03T09:28:36;9.80;;;8.80;;
71696;SDS011;59528;59.082;37.926;2023-02-03T09:31:04;10.23;;;9.13;;
71696;SDS011;59528;59.082;37.926;2023-02-03T09:33:30;10.90;;;9.53;;
71696;SDS011;59528;59.082;37.926;2023-02-03T09:35:56;10.03;;;9.03;;
71696;SDS011;59528;59.082;37.926;2023-02-03T09:38:22;10.93;;;9.13;;
71696;SDS011;59528;59.082;37.926;2023-02-03T09:40:48;10.33;;;9.20;;
71696;SDS011;59528;59.082;37.926;2023-02-03T09:44:01;10.13;;;8.90;;
71696;SDS011;59528;59.082;37.926;2023-02-03T09:46:26;11.83;;;9.37;;
71696;SDS011;59528;59.082;37.926;2023-02-03T09:49:35;10.13;;;9.13;;
71696;SDS011;59528;59.082;37.926;2023-02-03T09:51:45;10.40;;;8.77;;
71696;SDS011;59528;59.082;37.926;2023-02-03T09:54:15;10.40;;;9.40;;
71696;SDS011;59528;59.082;37.926;2023-02-03T09:56:42;9.63;;;8.63;;
71696;SDS011;59528;59.082;37.926;2023-02-03T09:59:17;10.17;;;9.17;;
71696;SDS011;59528;59.082;37.926;2023-02-03T10:01:46;10.70;;;9.60;;
71696;SDS011;59528;59.082;37.926;2023-02-03T10:06:44;10.50;;;9.27;;
71696;SDS011;59528;59.082;37.926;2023-02-03T10:20:14;10.40;;;9.30;;
71696;SDS011;59528;59.082;37.926;2023-02-03T10:22:20;10.23;;;9.13;;
71696;SDS011;59528;59.082;37.926;2023-02-03T10:24:47;10.13;;;9.10;;
71696;SDS011;59528;59.082;37.926;2023-02-03T10:27:19;10.43;;;9.13;;
71696;SDS011;59528;59.082;37.926;2023-02-03T10:29:48;9.87;;;8.87;;
71696;SDS011;59528;59.082;37.926;2023-02-03T10:32:16;10.47;;;9.37;;
71696;SDS011;59528;59.082;37.926;2023-02-03T10:34:43;10.60;;;9.40;;
71696;SDS011;59528;59.082;37.926;2023-02-03T10:37:28;10.17;;;9.03;;
71696;SDS011;59528;59.082;37.926;2023-02-03T10:39:55;9.77;;;8.77;;
71696;SDS011;59528;59.082;37.926;2023-02-03T10:42:21;10.27;;;9.27;;
71696;SDS011;59528;59.082;37.926;2023-02-03T10:44:50;10.03;;;8.77;;
71696;SDS011;59528;59.082;37.926;2023-02-03T10:47:20;10.73;;;9.40;;
71696;SDS011;59528;59.082;37.926;2023-02-03T10:49:49;10.90;;;9.80;;
71696;SDS011;59528;59.082;37.926;2023-02-03T10:52:25;10.87;;;9.63;;
71696;SDS011;59528;59.082;37.926;2023-02-03T10:54:52;11.20;;;10.00;;
71696;SDS011;59528;59.082;37.926;2023-02-03T10:57:18;9.80;;;8.80;;
71696;SDS011;59528;59.082;37.926;2023-02-03T10:59:44;10.00;;;9.00;;
71696;SDS011;59528;59.082;37.926;2023-02-03T11:02:26;10.00;;;9.00;;
71696;SDS011;59528;59.082;37.926;2023-02-03T11:07:37;10.37;;;9.27;;
71696;SDS011;59528;59.082;37.926;2023-02-03T11:10:03;10.57;;;9.53;;
71696;SDS011;59528;59.082;37.926;2023-02-03T11:12:49;10.50;;;9.40;;
71696;SDS011;59528;59.082;37.926;2023-02-03T11:15:15;10.83;;;9.50;;
71696;SDS011;59528;59.082;37.926;2023-02-03T11:17:43;10.33;;;9.23;;
71696;SDS011;59528;59.082;37.926;2023-02-03T11:20:13;10.47;;;9.37;;
71696;SDS011;59528;59.082;37.926;2023-02-03T11:22:40;11.33;;;9.90;;
71696;SDS011;59528;59.082;37.926;2023-02-03T11:28:04;10.43;;;9.33;;
71696;SDS011;59528;59.082;37.926;2023-02-03T11:30:31;10.63;;;9.53;;
71696;SDS011;59528;59.082;37.926;2023-02-03T11:33:00;10.53;;;9.43;;
71696;SDS011;59528;59.082;37.926;2023-02-03T11:35:27;10.73;;;9.10;;
71696;SDS011;59528;59.082;37.926;2023-02-03T11:37:55;10.03;;;9.03;;
71696;SDS011;59528;59.082;37.926;2023-02-03T11:45:13;10.90;;;9.80;;
71696;SDS011;59528;59.082;37.926;2023-02-03T11:47:45;10.33;;;9.30;;
71696;SDS011;59528;59.082;37.926;2023-02-03T11:58:17;10.87;;;9.73;;
71696;SDS011;59528;59.082;37.926;2023-02-03T12:01:12;10.87;;;9.47;;
71696;SDS011;59528;59.082;37.926;2023-02-03T12:03:49;10.87;;;9.73;;
71696;SDS011;59528;59.082;37.926;2023-02-03T12:09:15;11.17;;;9.97;;
71696;SDS011;59528;59.082;37.926;2023-02-03T12:14:42;10.03;;;9.03;;
71696;SDS011;59528;59.082;37.926;2023-02-03T12:30:38;11.37;;;9.90;;
71696;SDS011;59528;59.082;37.926;2023-02-03T12:33:11;11.23;;;10.03;;
71696;SDS011;59528;59.082;37.926;2023-02-03T12:40:44;10.70;;;9.70;;
71696;SDS011;59528;59.082;37.926;2023-02-03T12:45:37;11.30;;;10.03;;
71696;SDS011;59528;59.082;37.926;2023-02-03T12:48:05;11.03;;;9.93;;
71696;SDS011;59528;59.082;37.926;2023-02-03T12:50:36;10.43;;;9.43;;
71696;SDS011;59528;59.082;37.926;2023-02-03T12:55:50;10.93;;;9.83;;
71696;SDS011;59528;59.082;37.926;2023-02-03T12:58:23;10.70;;;9.33;;
71696;SDS011;59528;59.082;37.926;2023-02-03T13:08:28;9.97;;;9.07;;
71696;SDS011;59528;59.082;37.926;2023-02-03T13:13:39;10.53;;;9.43;;
71696;SDS011;59528;59.082;37.926;2023-02-03T13:16:07;10.17;;;9.10;;
71696;SDS011;59528;59.082;37.926;2023-02-03T13:18:35;10.60;;;9.50;;
71696;SDS011;59528;59.082;37.926;2023-02-03T13:21:01;10.47;;;9.37;;
71696;SDS011;59528;59.082;37.926;2023-02-03T13:23:26;10.70;;;9.63;;
71696;SDS011;59528;59.082;37.926;2023-02-03T13:33:45;10.93;;;9.73;;
71696;SDS011;59528;59.082;37.926;2023-02-03T13:38:47;11.27;;;10.17;;
71696;SDS011;59528;59.082;37.926;2023-02-03T13:44:02;10.67;;;9.67;;
71696;SDS011;59528;59.082;37.926;2023-02-03T13:46:32;11.00;;;9.90;;
71696;SDS011;59528;59.082;37.926;2023-02-03T13:49:00;10.80;;;9.70;;
71696;SDS011;59528;59.082;37.926;2023-02-03T13:51:28;10.53;;;9.50;;
71696;SDS011;59528;59.082;37.926;2023-02-03T13:54:11;11.10;;;9.97;;
71696;SDS011;59528;59.082;37.926;2023-02-03T13:56:38;11.57;;;10.37;;
71696;SDS011;59528;59.082;37.926;2023-02-03T14:01:39;11.10;;;10.00;;
71696;SDS011;59528;59.082;37.926;2023-02-03T14:06:57;10.90;;;9.80;;
71696;SDS011;59528;59.082;37.926;2023-02-03T14:17:06;10.97;;;9.87;;
71696;SDS011;59528;59.082;37.926;2023-02-03T14:22:15;11.70;;;10.47;;
71696;SDS011;59528;59.082;37.926;2023-02-03T14:24:42;11.10;;;10.00;;
71696;SDS011;59528;59.082;37.926;2023-02-03T14:27:19;10.37;;;9.33;;
71696;SDS011;59528;59.082;37.926;2023-02-03T14:29:45;10.47;;;9.43;;
71696;SDS011;59528;59.082;37.926;2023-02-03T14:32:41;10.27;;;9.27;;
71696;SDS011;59528;59.082;37.926;2023-02-03T14:35:19;10.70;;;9.57;;
71696;SDS011;59528;59.082;37.926;2023-02-03T14:46:15;10.90;;;9.80;;
71696;SDS011;59528;59.082;37.926;2023-02-03T14:51:46;10.70;;;9.60;;
71696;SDS011;59528;59.082;37.926;2023-02-03T14:59:39;10.13;;;9.13;;
71696;SDS011;59528;59.082;37.926;2023-02-03T15:02:09;10.00;;;9.00;;
71696;SDS011;59528;59.082;37.926;2023-02-03T15:04:35;9.80;;;8.83;;
71696;SDS011;59528;59.082;37.926;2023-02-03T15:07:01;10.40;;;9.40;;
71696;SDS011;59528;59.082;37.926;2023-02-03T15:09:40;10.23;;;9.23;;
71696;SDS011;59528;59.082;37.926;2023-02-03T15:12:16;9.73;;;8.73;;
71696;SDS011;59528;59.082;37.926;2023-02-03T15:14:42;9.57;;;8.67;;
71696;SDS011;59528;59.082;37.926;2023-02-03T15:17:11;9.93;;;8.93;;
71696;SDS011;59528;59.082;37.926;2023-02-03T15:19:39;9.93;;;8.93;;
71696;SDS011;59528;59.082;37.926;2023-02-03T15:24:42;10.83;;;9.80;;
71696;SDS011;59528;59.082;37.926;2023-02-03T15:27:17;9.83;;;8.87;;
71696;SDS011;59528;59.082;37.926;2023-02-03T15:29:44;10.33;;;9.23;;
71696;SDS011;59528;59.082;37.926;2023-02-03T15:34:42;10.67;;;9.53;;
71696;SDS011;59528;59.082;37.926;2023-02-03T15:37:12;10.47;;;9.30;;
71696;SDS011;59528;59.082;37.926;2023-02-03T15:42:11;10.53;;;9.43;;
71696;SDS011;59528;59.082;37.926;2023-02-03T15:44:40;9.90;;;8.90;;
71696;SDS011;59528;59.082;37.926;2023-02-03T15:47:15;10.50;;;9.47;;
71696;SDS011;59528;59.082;37.926;2023-02-03T15:49:43;10.33;;;9.13;;
71696;SDS011;59528;59.082;37.926;2023-02-03T15:52:13;10.00;;;9.00;;
71696;SDS011;59528;59.082;37.926;2023-02-03T15:54:41;10.23;;;9.23;;
71696;SDS011;59528;59.082;37.926;2023-02-03T15:57:16;10.37;;;9.27;;
71696;SDS011;59528;59.082;37.926;2023-02-03T15:59:45;10.57;;;9.57;;
71696;SDS011;59528;59.082;37.926;2023-02-03T16:04:51;9.90;;;8.90;;
71696;SDS011;59528;59.082;37.926;2023-02-03T16:07:20;9.97;;;8.97;;
71696;SDS011;59528;59.082;37.926;2023-02-03T16:09:46;11.03;;;9.77;;
71696;SDS011;59528;59.082;37.926;2023-02-03T16:14:42;10.97;;;9.70;;
71696;SDS011;59528;59.082;37.926;2023-02-03T16:19:42;10.47;;;9.37;;
71696;SDS011;59528;59.082;37.926;2023-02-03T16:22:28;10.10;;;9.10;;
71696;SDS011;59528;59.082;37.926;2023-02-03T16:24:55;10.67;;;9.57;;
71696;SDS011;59528;59.082;37.926;2023-02-03T16:29:52;10.57;;;9.57;;
71696;SDS011;59528;59.082;37.926;2023-02-03T16:32:37;10.27;;;9.27;;
71696;SDS011;59528;59.082;37.926;2023-02-03T16:35:22;11.13;;;9.93;;
71696;SDS011;59528;59.082;37.926;2023-02-03T16:38:07;10.57;;;9.53;;
71696;SDS011;59528;59.082;37.926;2023-02-03T16:40:56;10.47;;;9.47;;
71696;SDS011;59528;59.082;37.926;2023-02-03T16:43:40;9.83;;;8.83;;
71696;SDS011;59528;59.082;37.926;2023-02-03T16:46:25;10.07;;;9.07;;
71696;SDS011;59528;59.082;37.926;2023-02-03T16:49:09;9.87;;;8.90;;
71696;SDS011;59528;59.082;37.926;2023-02-03T16:51:53;9.80;;;8.80;;
71696;SDS011;59528;59.082;37.926;2023-02-03T16:54:19;10.67;;;9.37;;
71696;SDS011;59528;59.082;37.926;2023-02-03T16:56:45;11.30;;;10.10;;
71696;SDS011;59528;59.082;37.926;2023-02-03T16:59:11;10.03;;;9.03;;
71696;SDS011;59528;59.082;37.926;2023-02-03T17:01:37;10.40;;;9.20;;
71696;SDS011;59528;59.082;37.926;2023-02-03T17:04:03;10.23;;;9.23;;
71696;SDS011;59528;59.082;37.926;2023-02-03T17:06:29;10.27;;;9.27;;
71696;SDS011;59528;59.082;37.926;2023-02-03T17:08:55;10.70;;;9.60;;
71696;SDS011;59528;59.082;37.926;2023-02-03T17:11:21;10.27;;;9.17;;